Wednesday, November 22, 2017, 9:13 AM GMT
Back to Local

CWRN, Hart Island Meteorological Aeronautical Presentation System

Location: , , Canada Lat: 45.35
Local Time: 9:13 AM GMT ( 9:13 GMT) Lon: -60.983
Time Zone: GMT Elev: 13 ft

Show me the last for .
Show Coded

Time T Td Feel RH Dir Speed Gust Alt SLP Vis Weather Sky Remarks
2017-11-22 08:00 50 47 47 88 220° 7 - - 30.13 0 None
2017-11-22 07:00 50 47 - 87 220° 9 - - 30.14 0 None
2017-11-22 06:00 49 46 46 89 220° 7 - - 30.14 0 None
2017-11-22 05:00 48 45 44 90 200° 9 - - 30.14 0 None
2017-11-22 04:00 47 44 43 91 180° 8 - - 30.14 0 None
2017-11-22 03:00 46 43 40 90 190° 10 - - 30.14 0 None
2017-11-22 02:00 42 39 36 88 190° 10 - - 30.16 0 None
2017-11-22 01:00 36 29 32 75 150° 5 - - 30.17 0 None
2017-11-22 00:00 35 24 30 63 230° 7 - - 30.19 0 None
2017-11-21 23:00 33 21 25 60 230° 10 - - 30.18 0 None
2017-11-21 22:00 35 22 27 60 240° 10 - - 30.17 0 None
2017-11-21 21:00 35 21 29 56 230° 7 - - 30.15 0 None
2017-11-21 20:00 38 21 30 50 240° 10 - - 30.13 0 None
2017-11-21 19:00 39 19 31 45 260° 13 - - 30.10 0 Peak wind: 19 mph (17 kts) from 260° at 17 min
2017-11-21 18:00 38 20 30 49 250° 13 - - 30.09 0 Peak wind: 21 mph (19 kts) from 250° at 04 min
2017-11-21 17:00 35 19 23 52 250° 13 21 - 30.08 0 Peak wind: 21 mph (19 kts) from 240° at 00 min
2017-11-21 16:00 34 20 23 55 260° 15 22 - 30.08 0 Peak wind: 21 mph (19 kts) from 260° at 26 min
2017-11-21 15:00 32 21 20 62 270° 18 - - 30.06 0 Peak wind: 28 mph (25 kts) from 290° at 02 min
2017-11-21 14:00 31 22 17 69 280° 17 24 - 30.05 0 Peak wind: 26 mph (23 kts) from 260° at 10 min
2017-11-21 13:00 28 21 12 75 260° 21 26 - 30.03 0 Peak wind: 28 mph (25 kts) from 260° at 03 min
2017-11-21 12:00 26 19 11 76 250° 17 23 - 30.01 0 Peak wind: 23 mph (20 kts) from 260° at 59 min
2017-11-21 11:00 24 17 10 75 250° 14 20 - 29.97 0 Peak wind: 24 mph (21 kts) from 250° at 27 min
2017-11-21 10:00 26 19 14 75 250° 15 - - 29.93 0 Peak wind: 28 mph (25 kts) from 260° at 02 min

Support USWX by starting your Amazon purchase here.